Time;durP1;ratioP1;P1;durP2;ratioP2;P2;SDS_P1;SDS_P2;PMS_P1;PMS_P2;Temp;Humidity;BMP_temperature;BMP_pressure;BME280_temperature;BME280_humidity;BME280_pressure;Samples;Min_cycle;Max_cycle;Signal;HPM_P1;HPM_P2
2022/10/07 00:00:09;;;;;;;6.57;2.17;;;;;;;8.20;85.70;102539.88;10206286;29;20067;-81
2022/10/07 00:05:10;;;;;;;10.77;2.45;;;;;;;8.17;85.50;102530.94;10182145;29;20055;-81
2022/10/07 00:10:12;;;;;;;8.55;2.47;;;;;;;8.19;85.68;102516.31;10182319;29;20138;-81
2022/10/07 00:15:14;;;;;;;7.00;3.35;;;;;;;8.24;86.09;102514.81;10203201;29;20106;-81
2022/10/07 00:20:16;;;;;;;11.07;2.85;;;;;;;8.23;86.03;102502.63;10170513;29;20052;-81
2022/10/07 00:25:18;;;;;;;6.95;2.60;;;;;;;8.21;85.78;102499.91;10200636;29;20048;-82
2022/10/07 00:30:19;;;;;;;15.38;3.22;;;;;;;8.20;85.83;102482.47;10193859;29;20060;-81
2022/10/07 00:35:21;;;;;;;12.70;3.20;;;;;;;8.19;85.95;102485.88;10202148;29;20076;-81
2022/10/07 00:40:23;;;;;;;12.57;3.03;;;;;;;8.18;86.26;102478.88;10186103;29;20048;-81
2022/10/07 00:45:24;;;;;;;11.80;3.00;;;;;;;8.17;85.76;102474.47;10187538;29;20052;-82
2022/10/07 00:50:28;;;;;;;11.18;2.55;;;;;;;8.14;85.80;102472.56;10199264;29;20051;-81
2022/10/07 00:55:31;;;;;;;12.75;2.83;;;;;;;8.06;85.81;102473.91;10194210;29;20054;-81
2022/10/07 01:00:32;;;;;;;6.97;3.25;;;;;;;8.03;85.85;102462.38;10176009;29;20052;-81
2022/10/07 01:05:34;;;;;;;7.68;2.90;;;;;;;8.04;85.77;102456.34;10205127;29;20067;-82
2022/10/07 01:10:55;;;;;;;8.95;3.10;;;;;;;8.05;85.83;102447.72;10181206;29;20080;-82
2022/10/07 01:16:05;;;;;;;7.45;2.97;;;;;;;8.02;85.60;102437.13;10188373;29;20055;-81
2022/10/07 01:21:28;;;;;;;9.90;2.90;;;;;;;8.02;85.62;102440.63;10191163;29;20350;-81
2022/10/07 01:26:53;;;;;;;12.75;2.72;;;;;;;7.97;85.48;102431.63;10156206;29;20049;-81
2022/10/07 01:32:03;;;;;;;9.00;3.28;;;;;;;7.99;85.59;102429.09;10175516;29;20048;-81
2022/10/07 01:37:10;;;;;;;9.43;2.47;;;;;;;7.97;85.50;102423.78;10159226;29;20076;-81
2022/10/07 01:42:13;;;;;;;13.52;2.83;;;;;;;7.91;85.38;102421.78;10202755;29;20048;-82
2022/10/07 01:47:15;;;;;;;8.02;2.45;;;;;;;7.88;85.51;102411.19;10184965;29;20063;-82
2022/10/07 01:52:31;;;;;;;12.50;2.95;;;;;;;7.91;85.40;102408.75;10196147;29;20172;-81
2022/10/07 01:57:52;;;;;;;10.10;2.60;;;;;;;7.87;85.15;102393.72;10162324;29;20048;-82
2022/10/07 02:03:22;;;;;;;8.27;2.80;;;;;;;7.83;85.18;102383.06;10187629;29;20083;-81
2022/10/07 02:08:38;;;;;;;11.30;2.60;;;;;;;7.82;85.24;102378.66;10183378;29;20074;-81
2022/10/07 02:13:46;;;;;;;6.97;2.10;;;;;;;7.84;85.12;102362.28;10192131;29;20575;-82
2022/10/07 02:18:51;;;;;;;7.68;2.13;;;;;;;7.90;84.88;102352.16;10172092;29;20155;-82
2022/10/07 02:23:55;;;;;;;3.65;1.83;;;;;;;7.86;84.50;102350.19;10207022;29;20124;-79
2022/10/07 02:29:00;;;;;;;10.73;1.88;;;;;;;7.87;84.53;102344.19;10193007;29;20056;-82
2022/10/07 02:34:08;;;;;;;6.80;1.95;;;;;;;7.90;84.41;102336.50;10192112;29;20036;-81
2022/10/07 02:39:11;;;;;;;9.45;1.92;;;;;;;7.91;84.34;102332.19;10189064;29;20083;-82
2022/10/07 02:44:29;;;;;;;10.55;2.25;;;;;;;7.94;84.23;102338.47;10176735;29;20094;-82
2022/10/07 02:49:36;;;;;;;9.27;1.80;;;;;;;7.93;83.99;102331.47;10172882;29;20059;-80
2022/10/07 02:54:48;;;;;;;13.85;1.95;;;;;;;8.01;83.95;102323.16;10182736;29;20445;-81
2022/10/07 02:59:52;;;;;;;4.53;1.20;;;;;;;8.02;83.79;102322.34;10172476;29;20506;-82
2022/10/07 03:04:56;;;;;;;7.35;1.50;;;;;;;8.02;83.55;102323.22;10182060;29;20536;-82
2022/10/07 03:09:58;;;;;;;4.05;1.30;;;;;;;8.05;83.54;102319.88;10161638;29;20071;-81
2022/10/07 03:15:01;;;;;;;5.05;1.80;;;;;;;8.04;83.68;102315.47;10162395;29;20067;-82
2022/10/07 03:20:03;;;;;;;8.63;1.92;;;;;;;8.06;83.61;102306.91;10185535;29;20052;-82
2022/10/07 03:25:05;;;;;;;6.43;2.08;;;;;;;8.07;83.52;102299.97;10181797;29;20068;-81
2022/10/07 03:30:09;;;;;;;7.93;1.77;;;;;;;7.97;83.64;102296.91;10155273;29;20062;-81
2022/10/07 03:35:12;;;;;;;9.00;1.70;;;;;;;7.91;83.61;102291.38;10176230;29;20068;-82
2022/10/07 03:40:14;;;;;;;6.13;1.70;;;;;;;7.82;83.87;102284.75;10168658;29;20048;-81
2022/10/07 03:45:18;;;;;;;6.93;2.25;;;;;;;7.75;84.12;102278.34;10154304;29;20072;-82
2022/10/07 03:50:20;;;;;;;6.20;1.50;;;;;;;7.67;84.29;102285.75;10185881;29;20472;-81
2022/10/07 03:55:23;;;;;;;7.95;2.03;;;;;;;7.63;84.21;102268.16;10175090;29;20115;-81
2022/10/07 04:00:26;;;;;;;15.88;2.10;;;;;;;7.62;84.71;102261.16;10177142;29;20079;-81
2022/10/07 04:05:30;;;;;;;9.98;2.10;;;;;;;7.59;84.77;102260.97;10175598;29;20051;-81
2022/10/07 04:10:33;;;;;;;10.35;2.28;;;;;;;7.52;85.03;102257.16;10178960;29;20052;-81
2022/10/07 04:15:36;;;;;;;9.95;1.92;;;;;;;7.47;85.23;102245.59;10177246;29;20109;-81
2022/10/07 04:20:38;;;;;;;6.63;1.98;;;;;;;7.43;85.31;102246.22;10171733;29;20060;-83
2022/10/07 04:25:45;;;;;;;5.32;1.48;;;;;;;7.44;85.48;102240.22;10155828;29;20049;-82
2022/10/07 04:30:52;;;;;;;7.20;1.98;;;;;;;7.35;85.78;102239.72;10184519;29;20368;-82
2022/10/07 04:36:08;;;;;;;7.93;2.08;;;;;;;7.32;86.03;102230.03;10177039;29;20107;-82
2022/10/07 04:41:17;;;;;;;7.07;1.90;;;;;;;7.32;86.02;102235.25;10185895;29;20299;-81
2022/10/07 04:46:19;;;;;;;6.43;1.98;;;;;;;7.33;86.41;102225.72;10161895;29;20544;-81
2022/10/07 04:51:30;;;;;;;6.03;2.20;;;;;;;7.44;86.63;102219.38;10164602;29;20488;-82
2022/10/07 04:56:33;;;;;;;13.45;2.33;;;;;;;7.53;86.93;102216.34;10191268;29;20052;-82
2022/10/07 05:01:38;;;;;;;3.92;1.85;;;;;;;7.56;86.84;102214.78;10162316;29;20385;-82
2022/10/07 05:06:39;;;;;;;12.05;2.35;;;;;;;7.60;87.06;102211.53;10171623;29;20052;-81
2022/10/07 05:11:44;;;;;;;10.52;2.67;;;;;;;7.65;86.92;102203.06;10164224;29;20063;-81
2022/10/07 05:16:50;;;;;;;7.45;2.25;;;;;;;7.69;86.96;102205.91;10172026;29;20088;-82
2022/10/07 05:21:55;;;;;;;11.70;2.20;;;;;;;7.68;86.80;102208.44;10163042;29;20062;-82
2022/10/07 05:26:58;;;;;;;12.18;2.95;;;;;;;7.71;86.96;102208.59;10183444;29;20915;-81
2022/10/07 05:32:01;;;;;;;9.10;3.05;;;;;;;7.77;87.14;102195.88;10177446;29;20056;-82
2022/10/07 05:37:07;;;;;;;9.55;3.22;;;;;;;7.84;86.96;102205.78;10171058;29;20071;-82
2022/10/07 05:42:11;;;;;;;16.40;3.05;;;;;;;7.93;87.02;102192.34;10176207;29;20060;-82
2022/10/07 05:47:17;;;;;;;20.98;3.33;;;;;;;8.01;87.09;102197.94;10169681;29;20075;-82
2022/10/07 05:52:20;;;;;;;14.45;3.25;;;;;;;8.06;86.88;102201.66;10146580;29;20059;-81
2022/10/07 05:57:23;;;;;;;7.07;2.17;;;;;;;8.03;86.77;102188.44;10179089;29;20056;-81
2022/10/07 06:02:26;;;;;;;8.88;3.20;;;;;;;8.05;86.71;102195.53;10117480;29;20162;-81
2022/10/07 06:07:28;;;;;;;18.27;3.42;;;;;;;8.10;86.66;102182.72;10145837;29;20048;-83
2022/10/07 06:17:52;;;;;;;13.30;2.88;;;;;;;8.23;86.66;102190.34;10161951;29;20615;-81
2022/10/07 06:22:56;;;;;;;6.60;2.50;;;;;;;8.27;86.66;102176.63;10139446;29;20132;-83
2022/10/07 06:27:58;;;;;;;13.82;2.75;;;;;;;8.36;86.76;102186.63;10162145;29;20052;-81
2022/10/07 06:33:01;;;;;;;14.00;4.47;;;;;;;8.49;86.73;102183.78;10139201;29;20044;-80
2022/10/07 06:38:06;;;;;;;10.60;2.88;;;;;;;8.65;86.59;102180.22;10143030;29;20050;-80
2022/10/07 06:43:09;;;;;;;10.50;2.15;;;;;;;8.79;86.40;102175.63;10131041;29;20052;-79
2022/10/07 06:48:20;;;;;;;6.53;2.17;;;;;;;8.99;86.22;102187.00;10109567;29;20072;-80
2022/10/07 06:53:22;;;;;;;15.13;2.42;;;;;;;9.14;86.17;102189.44;10122286;29;20045;-82
2022/10/07 06:58:26;;;;;;;8.13;2.70;;;;;;;9.35;85.87;102191.22;10131606;29;20099;-82
2022/10/07 07:03:29;;;;;;;5.43;2.00;;;;;;;9.53;85.31;102188.50;10137437;29;20048;-82
2022/10/07 07:08:37;;;;;;;15.93;2.97;;;;;;;9.73;85.06;102192.88;10163775;29;20049;-83
2022/10/07 07:13:40;;;;;;;18.17;4.15;;;;;;;9.95;84.71;102185.94;10157077;29;20509;-83
2022/10/07 07:18:55;;;;;;;11.02;3.50;;;;;;;10.41;84.28;102179.13;10149785;29;20044;-82
2022/10/07 07:23:58;;;;;;;7.05;1.70;;;;;;;14.88;80.68;102181.53;10176256;29;20145;-79
2022/10/07 07:29:02;;;;;;;14.27;2.42;;;;;;;16.73;72.95;102173.34;10145561;29;20063;-78
2022/10/07 07:34:12;;;;;;;24.45;2.85;;;;;;;18.00;67.75;102167.75;10127583;29;20134;-78
2022/10/07 07:39:17;;;;;;;8.52;2.30;;;;;;;19.21;62.86;102172.84;10138052;29;20052;-77
2022/10/07 07:44:24;;;;;;;9.13;2.22;;;;;;;19.03;60.29;102183.41;10121216;29;20072;-77
2022/10/07 07:49:31;;;;;;;16.52;2.08;;;;;;;18.60;59.63;102170.81;10117368;29;20134;-76
2022/10/07 07:54:36;;;;;;;10.15;2.20;;;;;;;17.76;59.55;102163.06;10142688;29;20045;-76
2022/10/07 07:59:38;;;;;;;11.27;2.78;;;;;;;15.89;61.42;102153.56;10152100;29;20075;-78
2022/10/07 08:04:42;;;;;;;5.63;1.48;;;;;;;14.82;63.61;102166.44;10141065;29;20040;-77
2022/10/07 08:09:44;;;;;;;16.00;2.95;;;;;;;14.53;65.53;102165.75;10135978;29;20056;-77
2022/10/07 08:14:46;;;;;;;12.00;2.35;;;;;;;14.55;66.17;102158.78;10139510;29;20051;-77
2022/10/07 08:19:48;;;;;;;12.77;2.45;;;;;;;14.57;67.06;102149.16;10153263;29;20055;-77
2022/10/07 08:24:51;;;;;;;12.20;2.58;;;;;;;14.60;67.00;102146.59;10136402;29;20098;-77
2022/10/07 08:29:55;;;;;;;14.05;2.20;;;;;;;14.84;67.14;102137.47;10137878;29;20123;-77
2022/10/07 08:34:57;;;;;;;15.35;2.92;;;;;;;15.06;66.88;102148.47;10135442;29;20048;-77
2022/10/07 08:39:58;;;;;;;15.60;2.72;;;;;;;15.24;66.41;102124.19;10140563;29;20056;-77
2022/10/07 08:45:00;;;;;;;7.13;1.77;;;;;;;15.09;66.38;102117.78;10133492;29;20048;-76
2022/10/07 08:50:11;;;;;;;10.30;2.10;;;;;;;15.19;66.15;102116.19;10131734;29;20135;-77
2022/10/07 08:55:30;;;;;;;13.60;2.50;;;;;;;15.42;65.85;102106.06;10162540;29;20064;-78
2022/10/07 09:00:46;;;;;;;9.02;2.00;;;;;;;15.83;65.29;102102.41;10162463;29;20117;-78
2022/10/07 09:05:52;;;;;;;9.63;2.22;;;;;;;15.52;65.02;102109.75;10164992;29;20606;-79
2022/10/07 09:10:58;;;;;;;11.05;2.00;;;;;;;15.44;65.37;102100.81;10160568;29;20524;-79
2022/10/07 09:16:04;;;;;;;10.50;2.45;;;;;;;15.94;65.23;102090.25;10162338;29;20067;-78
2022/10/07 09:21:15;;;;;;;14.13;2.05;;;;;;;15.93;64.78;102095.50;10138534;29;20056;-78
2022/10/07 09:26:17;;;;;;;5.88;1.45;;;;;;;16.28;64.62;102082.81;10136217;29;20056;-78
2022/10/07 09:31:22;;;;;;;10.13;1.70;;;;;;;16.60;64.27;102085.00;10159946;29;20067;-78
2022/10/07 09:36:25;;;;;;;13.32;2.17;;;;;;;16.21;64.00;102086.25;10170713;29;20084;-78
2022/10/07 09:41:31;;;;;;;9.73;1.92;;;;;;;16.43;63.62;102074.22;10175471;29;20068;-78
2022/10/07 09:46:50;;;;;;;8.50;1.73;;;;;;;16.28;62.96;102072.25;10169259;29;20056;-78
2022/10/07 09:51:58;;;;;;;11.40;1.95;;;;;;;16.16;63.48;102066.81;10156732;29;20553;-78
2022/10/07 09:57:03;;;;;;;10.43;2.97;;;;;;;16.60;63.49;102066.50;10146344;29;20494;-78
2022/10/07 10:02:14;;;;;;;10.55;1.40;;;;;;;16.70;63.04;102049.88;10144851;29;20056;-78
2022/10/07 10:07:26;;;;;;;7.88;2.05;;;;;;;17.01;62.44;102049.34;10155316;29;20048;-78
2022/10/07 10:12:33;;;;;;;5.05;1.52;;;;;;;16.44;62.80;102039.00;10140266;29;20079;-80
2022/10/07 10:17:39;;;;;;;9.48;1.73;;;;;;;16.33;62.72;102036.19;10152137;29;20048;-79
2022/10/07 10:22:40;;;;;;;11.65;1.85;;;;;;;16.77;62.77;102027.03;10137892;29;20059;-79
2022/10/07 10:27:56;;;;;;;10.15;1.38;;;;;;;16.73;62.52;102027.88;10144953;29;20056;-80
2022/10/07 10:33:15;;;;;;;11.23;1.35;;;;;;;16.76;62.21;102012.03;10170606;29;20052;-79
2022/10/07 10:38:28;;;;;;;5.80;1.20;;;;;;;17.11;62.72;102008.88;10149147;29;20063;-79
2022/10/07 10:43:48;;;;;;;10.52;1.75;;;;;;;17.08;62.10;101998.28;10145714;29;20058;-79
2022/10/07 10:48:58;;;;;;;8.85;1.50;;;;;;;17.46;61.57;101992.44;10157452;29;20095;-79
2022/10/07 10:54:29;;;;;;;7.97;1.75;;;;;;;17.28;61.40;101985.25;10158751;29;20048;-80
2022/10/07 10:59:45;;;;;;;9.95;1.83;;;;;;;17.29;61.25;101979.97;10141410;29;20698;-80
2022/10/07 11:05:02;;;;;;;4.85;1.10;;;;;;;17.28;60.45;101970.25;10170653;29;20052;-82
2022/10/07 11:10:19;;;;;;;8.40;1.30;;;;;;;17.28;60.81;101959.66;10177681;29;20123;-79
2022/10/07 11:15:27;;;;;;;9.15;1.48;;;;;;;17.41;60.89;101950.03;10154945;29;20076;-79
2022/10/07 11:20:28;;;;;;;5.82;1.20;;;;;;;17.32;60.83;101952.59;10171249;29;20056;-81
2022/10/07 11:25:41;;;;;;;8.50;1.70;;;;;;;17.40;61.13;101945.63;10172685;29;20109;-80
2022/10/07 11:30:54;;;;;;;6.95;1.15;;;;;;;17.42;61.24;101938.56;10182922;29;20425;-80
2022/10/07 11:36:12;;;;;;;5.63;1.10;;;;;;;17.66;60.62;101923.72;10193766;29;20111;-80
2022/10/07 11:41:19;;;;;;;11.88;2.15;;;;;;;17.59;61.02;101901.59;10175598;29;20106;-80
2022/10/07 11:46:25;;;;;;;8.45;1.80;;;;;;;17.80;60.92;101900.81;10161744;29;20099;-80
2022/10/07 11:51:34;;;;;;;8.43;1.50;;;;;;;17.62;61.09;101892.78;10137880;29;20088;-80
2022/10/07 11:56:49;;;;;;;6.82;1.50;;;;;;;17.67;60.86;101889.28;10138435;29;20048;-81
2022/10/07 12:01:51;;;;;;;12.80;2.20;;;;;;;17.66;60.78;101887.50;10160348;29;20405;-78
2022/10/07 12:07:30;;;;;;;9.82;1.55;;;;;;;17.56;60.59;101874.22;10164355;29;20056;-79
2022/10/07 12:12:41;;;;;;;5.85;1.42;;;;;;;17.41;60.78;101865.31;10178380;29;20103;-81
2022/10/07 12:18:04;;;;;;;10.20;2.28;;;;;;;17.71;61.35;101857.53;10126336;29;20056;-76
2022/10/07 12:23:21;;;;;;;5.72;1.60;;;;;;;17.57;60.96;101846.88;10146030;29;20055;-76
2022/10/07 12:28:39;;;;;;;12.68;1.67;;;;;;;17.33;60.85;101848.50;10123389;29;20519;-75
2022/10/07 12:33:44;;;;;;;8.40;1.70;;;;;;;17.20;60.73;101844.00;10154533;29;20147;-76
2022/10/07 12:38:54;;;;;;;6.55;1.55;;;;;;;17.16;60.89;101821.03;10161437;29;20056;-77
2022/10/07 12:44:14;;;;;;;14.60;1.73;;;;;;;17.30;60.90;101814.06;10147664;29;20056;-78
2022/10/07 12:49:22;;;;;;;6.65;1.55;;;;;;;17.33;60.29;101819.38;10169972;29;20044;-78
2022/10/07 12:54:35;;;;;;;7.10;1.58;;;;;;;17.34;60.58;101807.94;10182434;29;20051;-80
2022/10/07 13:00:02;;;;;;;9.95;1.60;;;;;;;17.45;60.60;101802.69;10182282;29;20063;-80
2022/10/07 13:05:09;;;;;;;7.80;1.10;;;;;;;17.40;60.58;101794.72;10180110;29;20599;-84
2022/10/07 13:10:32;;;;;;;10.60;1.52;;;;;;;17.46;60.67;101784.16;10180492;29;20066;-81
2022/10/07 13:15:47;;;;;;;8.88;1.25;;;;;;;17.38;60.21;101785.00;10156620;29;20043;-83
2022/10/07 13:21:03;;;;;;;7.10;1.75;;;;;;;17.56;60.36;101770.94;10165440;29;20060;-83
2022/10/07 13:26:05;;;;;;;6.82;1.20;;;;;;;17.72;59.63;101771.91;10174471;29;20079;-83
2022/10/07 13:31:17;;;;;;;10.75;1.88;;;;;;;17.56;59.51;101766.53;10166083;29;20768;-77
2022/10/07 13:36:28;;;;;;;6.35;1.25;;;;;;;17.73;59.80;101769.25;10176548;29;20083;-76
2022/10/07 13:41:30;;;;;;;10.95;1.40;;;;;;;17.70;60.20;101758.66;10165889;29;20066;-77
2022/10/07 13:46:34;;;;;;;8.65;1.42;;;;;;;17.73;60.03;101747.16;10171297;29;20059;-79
2022/10/07 13:51:39;;;;;;;6.85;1.30;;;;;;;17.67;60.14;101737.44;10188154;29;20040;-78
2022/10/07 13:56:42;;;;;;;7.97;1.27;;;;;;;17.71;59.84;101719.78;10170751;29;20142;-81
2022/10/07 14:01:47;;;;;;;10.70;1.52;;;;;;;17.42;59.87;101713.53;10176922;29;20056;-75
2022/10/07 14:06:57;;;;;;;7.18;1.02;;;;;;;17.22;60.51;101709.91;10179506;29;20085;-75
2022/10/07 14:12:11;;;;;;;6.70;1.77;;;;;;;17.05;60.54;101707.19;10162426;29;20212;-77
2022/10/07 14:17:27;;;;;;;3.70;0.88;;;;;;;16.93;61.38;101702.72;10179555;29;20058;-75
2022/10/07 14:22:35;;;;;;;11.93;1.45;;;;;;;16.90;61.76;101703.63;10154057;29;20063;-76
2022/10/07 14:27:38;;;;;;;6.77;1.67;;;;;;;16.77;61.75;101692.03;10179508;29;20055;-76
2022/10/07 14:38:26;;;;;;;5.78;1.10;;;;;;;16.55;62.26;101679.56;10182494;29;20056;-76
2022/10/07 14:43:32;;;;;;;8.63;2.05;;;;;;;16.55;62.51;101677.78;10163867;29;20098;-76
2022/10/07 14:48:35;;;;;;;4.93;0.98;;;;;;;16.58;62.81;101672.50;10180941;29;20162;-76
2022/10/07 14:53:40;;;;;;;6.50;1.52;;;;;;;16.58;62.92;101669.00;10164820;29;20060;-76
2022/10/07 14:58:42;;;;;;;8.05;1.20;;;;;;;16.38;62.82;101659.19;10164019;29;20509;-76
2022/10/07 15:03:47;;;;;;;10.00;1.90;;;;;;;16.36;63.19;101650.38;10146646;29;20056;-77
2022/10/07 15:08:49;;;;;;;6.53;1.23;;;;;;;16.28;63.57;101649.41;10147238;29;20552;-76
2022/10/07 15:37:20;;;;;;;9.20;1.40;;;;;;;16.13;64.39;101622.88;10146304;29;20532;-76
2022/10/07 15:43:12;;;;;;;5.20;1.40;;;;;;;16.00;64.43;101606.94;10155354;29;20841;-76
2022/10/07 15:49:31;;;;;;;4.22;1.08;;;;;;;15.98;64.79;101594.59;10132591;29;20452;-77
2022/10/07 15:55:47;;;;;;;7.15;1.10;;;;;;;15.94;64.60;101606.88;10146100;29;20831;-77
2022/10/07 16:01:14;;;;;;;3.42;0.90;;;;;;;15.91;64.75;101606.84;10158765;29;20429;-76
2022/10/07 16:06:20;;;;;;;8.20;1.17;;;;;;;15.86;64.99;101620.00;10184485;29;20048;-76
2022/10/07 16:11:22;;;;;;;8.45;1.27;;;;;;;15.79;65.15;101620.84;10170592;29;20059;-76
2022/10/07 16:16:25;;;;;;;6.90;1.40;;;;;;;15.72;65.24;101614.59;10181374;29;20059;-76
2022/10/07 16:21:34;;;;;;;9.07;1.30;;;;;;;15.64;65.42;101608.38;10153399;29;20084;-75
2022/10/07 16:26:36;;;;;;;5.03;1.15;;;;;;;15.63;65.55;101603.06;10176645;29;20059;-76
2022/10/07 16:31:39;;;;;;;5.43;1.15;;;;;;;15.54;65.80;101606.50;10147752;29;20055;-77
2022/10/07 16:36:44;;;;;;;5.22;1.30;;;;;;;15.42;65.87;101606.38;10170708;29;20059;-76
2022/10/07 16:41:47;;;;;;;4.20;1.25;;;;;;;15.41;66.38;101596.69;10158658;29;20069;-75
2022/10/07 16:46:49;;;;;;;7.93;1.15;;;;;;;15.33;66.33;101592.22;10178214;29;20460;-76
2022/10/07 16:51:51;;;;;;;7.43;1.27;;;;;;;15.21;66.48;101592.09;10174820;29;20067;-76
2022/10/07 16:56:53;;;;;;;8.18;1.13;;;;;;;15.14;66.69;101584.97;10157675;29;20055;-76
2022/10/07 17:01:55;;;;;;;10.93;1.33;;;;;;;15.07;66.95;101567.31;10170047;29;20053;-76
2022/10/07 17:06:57;;;;;;;7.63;1.38;;;;;;;15.02;66.83;101576.03;10169669;29;20469;-75
2022/10/07 17:11:59;;;;;;;9.75;1.80;;;;;;;14.87;67.28;101573.25;10158672;29;20128;-76
2022/10/07 17:17:02;;;;;;;5.55;1.23;;;;;;;14.77;67.62;101568.72;10174248;29;20075;-76
2022/10/07 17:22:04;;;;;;;5.28;1.33;;;;;;;14.67;67.81;101563.34;10159239;29;20071;-76
2022/10/07 17:27:07;;;;;;;5.70;1.27;;;;;;;14.59;68.13;101562.34;10178340;29;20068;-76
2022/10/07 17:32:10;;;;;;;7.10;1.20;;;;;;;14.53;68.42;101558.72;10174491;29;20098;-76
2022/10/07 17:37:11;;;;;;;9.02;1.55;;;;;;;14.47;68.75;101557.78;10175758;29;20139;-76
2022/10/07 17:42:13;;;;;;;8.40;1.80;;;;;;;14.45;68.59;101562.13;10156460;29;20386;-76
2022/10/07 17:47:15;;;;;;;8.10;1.45;;;;;;;14.31;68.86;101564.59;10176759;29;20040;-76
2022/10/07 17:52:17;;;;;;;8.70;1.45;;;;;;;14.24;69.19;101551.31;10156561;29;20052;-77
2022/10/07 17:57:20;;;;;;;8.65;1.42;;;;;;;14.10;69.38;101546.72;10163701;29;20060;-76
2022/10/07 18:02:22;;;;;;;13.00;1.90;;;;;;;13.99;69.53;101552.69;10163158;29;20043;-77
2022/10/07 18:07:24;;;;;;;8.15;1.35;;;;;;;13.86;70.06;101549.88;10154725;29;20063;-76
2022/10/07 18:17:50;;;;;;;7.05;1.63;;;;;;;13.51;70.97;101547.56;10171803;29;20059;-76
2022/10/07 18:22:57;;;;;;;9.43;1.30;;;;;;;13.40;71.25;101541.22;10185214;29;20516;-77
2022/10/07 18:28:00;;;;;;;5.30;1.63;;;;;;;13.27;71.61;101537.47;10172367;29;20055;-76
2022/10/07 18:33:02;;;;;;;5.78;1.58;;;;;;;13.13;72.13;101531.94;10183916;29;20778;-77
2022/10/07 18:38:05;;;;;;;11.65;1.95;;;;;;;13.03;72.42;101529.97;10166730;29;20632;-76
2022/10/07 18:43:06;;;;;;;7.05;1.83;;;;;;;13.02;72.62;101521.22;10179963;29;20093;-76
2022/10/07 18:48:08;;;;;;;17.02;1.85;;;;;;;12.90;72.73;101521.88;10173900;29;20060;-76
2022/10/07 18:53:10;;;;;;;7.57;1.27;;;;;;;12.79;73.19;101520.78;10174901;29;20082;-76
2022/10/07 18:58:12;;;;;;;8.88;1.25;;;;;;;12.75;73.43;101515.44;10184047;29;20057;-76
2022/10/07 19:03:14;;;;;;;6.43;1.55;;;;;;;12.78;73.38;101516.38;10173301;29;20056;-76
2022/10/07 19:08:15;;;;;;;11.10;2.35;;;;;;;12.79;73.38;101505.03;10187517;29;20716;-76
2022/10/07 19:18:38;;;;;;;16.52;1.77;;;;;;;12.75;73.61;101508.44;10172533;29;20044;-75
2022/10/07 19:23:40;;;;;;;11.55;1.98;;;;;;;12.80;73.35;101496.25;10182503;29;20047;-76
2022/10/07 19:28:44;;;;;;;6.82;1.58;;;;;;;12.73;73.21;101497.91;10168523;29;20457;-76
2022/10/07 19:33:48;;;;;;;6.05;1.30;;;;;;;12.63;73.28;101495.06;10160124;29;20099;-76
2022/10/07 19:38:52;;;;;;;11.32;1.70;;;;;;;12.57;73.64;101495.81;10144924;29;20059;-76
2022/10/07 19:43:54;;;;;;;8.32;1.50;;;;;;;12.45;73.70;101490.31;10165102;29;20056;-76
2022/10/07 19:48:57;;;;;;;5.70;1.50;;;;;;;12.40;74.00;101487.59;10172814;29;20066;-76
2022/10/07 19:54:01;;;;;;;8.73;1.52;;;;;;;12.38;73.97;101481.41;10188489;29;20123;-76
2022/10/07 19:59:05;;;;;;;5.85;1.45;;;;;;;12.32;74.17;101478.66;10166013;29;20096;-76
2022/10/07 20:04:09;;;;;;;5.63;1.42;;;;;;;12.26;74.36;101474.16;10179272;29;20071;-76
2022/10/07 20:09:14;;;;;;;9.20;1.95;;;;;;;12.19;74.51;101473.16;10182677;29;20041;-76
2022/10/07 20:14:17;;;;;;;9.68;1.90;;;;;;;12.13;74.71;101475.66;10154570;29;20579;-76
2022/10/07 20:19:19;;;;;;;13.15;1.67;;;;;;;12.13;74.88;101472.13;10179895;29;20053;-76
2022/10/07 20:24:20;;;;;;;9.15;1.60;;;;;;;12.11;75.02;101469.47;10158068;29;20118;-76
2022/10/07 20:29:22;;;;;;;13.48;2.00;;;;;;;12.12;75.07;101465.13;10185141;29;20452;-76
2022/10/07 20:34:26;;;;;;;9.18;2.05;;;;;;;12.15;75.02;101445.06;10172629;29;20086;-76
2022/10/07 20:44:49;;;;;;;7.68;1.63;;;;;;;12.26;74.75;101433.91;10163288;29;20599;-76
2022/10/07 20:49:54;;;;;;;9.32;1.30;;;;;;;12.28;74.73;101424.31;10166657;29;20068;-76
2022/10/07 20:54:56;;;;;;;11.10;1.70;;;;;;;12.30;74.39;101428.75;10144827;29;20059;-75
2022/10/07 20:59:59;;;;;;;10.18;1.98;;;;;;;12.37;74.09;101414.00;10166713;29;20080;-75
2022/10/07 21:05:01;;;;;;;8.82;1.73;;;;;;;12.40;73.88;101414.06;10170769;29;20460;-75
2022/10/07 21:10:03;;;;;;;7.25;2.05;;;;;;;12.43;73.67;101408.88;10175920;29;20056;-75
2022/10/07 21:15:05;;;;;;;6.70;1.50;;;;;;;12.43;73.53;101402.72;10155034;29;20055;-76
2022/10/07 21:20:07;;;;;;;9.43;2.05;;;;;;;12.42;73.50;101401.84;10177478;29;20521;-75
2022/10/07 21:25:10;;;;;;;6.72;1.63;;;;;;;12.42;73.36;101393.97;10180656;29;20064;-76
2022/10/07 21:30:12;;;;;;;15.13;2.20;;;;;;;12.40;73.40;101390.44;10185715;29;20075;-75
2022/10/07 21:35:14;;;;;;;12.27;2.08;;;;;;;12.35;73.41;101385.06;10184649;29;20057;-76
2022/10/07 21:40:15;;;;;;;10.52;1.67;;;;;;;12.31;73.50;101374.47;10165549;29;20092;-75
2022/10/07 21:45:17;;;;;;;11.82;2.13;;;;;;;12.32;73.47;101364.00;10183110;29;20078;-75
2022/10/07 21:50:19;;;;;;;14.82;1.90;;;;;;;12.28;73.60;101363.91;10195009;29;20912;-75
2022/10/07 21:55:20;;;;;;;11.32;2.03;;;;;;;12.27;73.61;101356.91;10185342;29;20111;-75
2022/10/07 22:00:22;;;;;;;10.52;1.70;;;;;;;12.24;73.59;101349.84;10175249;29;20075;-75
2022/10/07 22:05:23;;;;;;;9.00;1.80;;;;;;;12.22;73.47;101350.66;10164529;29;20051;-75
2022/10/07 22:10:25;;;;;;;10.73;2.30;;;;;;;12.29;73.32;101337.69;10177533;29;20072;-75
2022/10/07 22:15:27;;;;;;;10.18;2.10;;;;;;;12.27;73.62;101338.53;10181250;29;20393;-76
2022/10/07 22:20:30;;;;;;;8.70;1.70;;;;;;;12.27;73.64;101341.16;10186754;29;20052;-76
2022/10/07 22:25:31;;;;;;;9.38;1.58;;;;;;;12.19;73.63;101335.75;10184147;29;20048;-76
2022/10/07 22:30:37;;;;;;;12.70;2.85;;;;;;;12.12;73.86;101329.50;10165015;29;20059;-76
2022/10/07 22:35:39;;;;;;;8.27;1.80;;;;;;;12.14;74.01;101326.91;10184000;29;20064;-75
2022/10/07 22:40:40;;;;;;;11.25;2.10;;;;;;;12.09;73.98;101318.94;10173148;29;20055;-76
2022/10/07 22:45:42;;;;;;;10.77;2.08;;;;;;;12.00;74.13;101319.63;10169357;29;20060;-76
2022/10/07 22:50:45;;;;;;;11.48;1.63;;;;;;;11.95;74.59;101316.06;10175733;29;20048;-76
2022/10/07 22:55:46;;;;;;;12.77;1.75;;;;;;;11.85;74.70;101322.81;10160884;29;20047;-76
2022/10/07 23:00:49;;;;;;;11.57;1.85;;;;;;;11.79;74.94;101325.31;10183996;29;20056;-76
2022/10/07 23:05:51;;;;;;;12.23;2.15;;;;;;;11.73;75.21;101316.44;10181834;29;20063;-76
2022/10/07 23:10:58;;;;;;;10.45;2.58;;;;;;;11.69;75.46;101318.09;10187376;29;20508;-76
2022/10/07 23:16:11;;;;;;;7.20;2.03;;;;;;;11.63;75.60;101300.50;10169403;29;20674;-76
2022/10/07 23:21:18;;;;;;;8.55;1.77;;;;;;;11.49;75.71;101300.19;10146940;29;20056;-76
2022/10/07 23:26:26;;;;;;;8.40;1.42;;;;;;;11.40;76.03;101286.03;10187630;29;20560;-75
2022/10/07 23:31:30;;;;;;;5.70;2.03;;;;;;;11.33;76.29;101284.97;10171109;29;20060;-75
2022/10/07 23:36:33;;;;;;;7.95;1.65;;;;;;;11.22;76.66;101291.75;10170314;29;20045;-76
2022/10/07 23:41:35;;;;;;;6.72;1.45;;;;;;;11.15;76.97;101282.84;10175142;29;20509;-76
2022/10/07 23:46:38;;;;;;;11.35;2.00;;;;;;;11.03;77.17;101283.44;10162540;29;20489;-76
2022/10/07 23:51:40;;;;;;;11.18;1.52;;;;;;;10.96;77.68;101286.78;10164995;29;20063;-75
2022/10/07 23:56:42;;;;;;;7.43;1.70;;;;;;;10.96;77.85;101273.69;10153189;29;20552;-76
